Tenes, Algeria
Current Conditions -  °F | °C
As of 10:00 AM on Friday 31 Oct 2014 (Local Time) from DAOI Reporting Station
Clear Clear  
Wind Chill: 64°   Ceiling: Unl
Heat Index: 64°   Visibility: 6mi
Dew Point: 43°   Wind: 9mph
Humidity: 45%   Direction: 80°E
Pressure: 30.21"   Gusts: NA
Location:  36.51°N, 1.31°E
Report Text: DAOI 310900Z 08008KT CAVOK 18/06 Q1023
Loading
Personal Weather Stations






























Interactive Weather Map New forecast layout! Learn more

10-Day Weather Forecast

Advertisements
Track Severe Weather on mobile